createdAt,value
2023-05-09T00:01:12.574Z,2.25
2023-05-09T00:03:44.718Z,2.50
2023-05-09T00:06:11.284Z,2.80
2023-05-09T00:08:37.703Z,2.67
2023-05-09T00:11:04.525Z,2.20
2023-05-09T00:13:31.038Z,3.25
2023-05-09T00:15:58.180Z,2.30
2023-05-09T00:18:25.215Z,2.65
2023-05-09T00:20:51.628Z,2.50
2023-05-09T00:23:18.006Z,2.40
2023-05-09T00:25:45.132Z,3.15
2023-05-09T00:28:11.517Z,2.50
2023-05-09T00:30:37.640Z,2.70
2023-05-09T00:33:06.602Z,2.70
2023-05-09T00:35:33.054Z,2.40
2023-05-09T00:37:59.558Z,2.60
2023-05-09T00:40:27.519Z,2.40
2023-05-09T00:42:55.600Z,2.80
2023-05-09T00:45:21.806Z,2.35
2023-05-09T00:47:48.197Z,2.53
2023-05-09T00:50:17.684Z,2.47
2023-05-09T00:52:44.093Z,2.30
2023-05-09T00:55:16.675Z,2.40
2023-05-09T00:57:43.780Z,2.30
2023-05-09T01:00:14.952Z,2.65
2023-05-09T01:02:47.240Z,2.92
2023-05-09T01:05:14.666Z,2.40
2023-05-09T01:08:10.806Z,2.20
2023-05-09T01:10:49.296Z,2.10
2023-05-09T01:13:38.614Z,2.67
2023-05-09T01:16:15.240Z,2.20
2023-05-09T01:18:50.070Z,2.20
2023-05-09T01:21:21.607Z,1.92
2023-05-09T01:24:09.598Z,2.03
2023-05-09T01:26:47.671Z,2.15
2023-05-09T01:29:22.817Z,2.33
2023-05-09T01:31:49.530Z,1.90
2023-05-09T01:34:17.989Z,2.08
2023-05-09T01:36:46.849Z,2.50
2023-05-09T01:39:13.749Z,2.22
2023-05-09T01:41:40.559Z,1.90
2023-05-09T01:44:11.325Z,2.20
2023-05-09T01:46:38.254Z,1.90
2023-05-09T01:49:06.485Z,2.03
2023-05-09T01:51:34.111Z,2.00
2023-05-09T01:54:01.170Z,1.90
2023-05-09T01:56:27.602Z,2.00
2023-05-09T01:58:56.659Z,2.17
2023-05-09T02:01:23.928Z,2.38
2023-05-09T02:03:52.328Z,1.80
2023-05-09T02:06:20.580Z,2.08
2023-05-09T02:08:47.263Z,1.65
2023-05-09T02:11:13.654Z,1.77
2023-05-09T02:13:41.696Z,1.95
2023-05-09T02:16:11.061Z,2.22
2023-05-09T02:18:38.269Z,2.33
2023-05-09T02:21:05.564Z,2.15
2023-05-09T02:23:31.975Z,1.80
2023-05-09T02:25:58.393Z,2.10
2023-05-09T02:28:27.312Z,1.80
2023-05-09T02:30:56.059Z,1.60
2023-05-09T02:33:22.758Z,1.85
2023-05-09T02:35:49.610Z,1.95
2023-05-09T02:38:16.069Z,2.15
2023-05-09T02:40:43.603Z,2.13
2023-05-09T02:43:11.990Z,2.05
2023-05-09T02:45:38.398Z,1.65
2023-05-09T02:48:08.375Z,2.03
2023-05-09T02:50:37.684Z,1.73
2023-05-09T02:53:04.130Z,2.03
2023-05-09T02:55:31.930Z,1.90
2023-05-09T02:58:12.058Z,1.90
2023-05-09T03:00:42.732Z,1.70
2023-05-09T03:03:11.901Z,1.70
2023-05-09T03:05:38.314Z,1.60
2023-05-09T03:08:04.991Z,1.90
2023-05-09T03:10:32.361Z,2.03
2023-05-09T03:12:58.700Z,2.00
2023-05-09T03:15:25.028Z,1.83
2023-05-09T03:17:51.700Z,1.90
2023-05-09T03:20:18.537Z,1.63
2023-05-09T03:22:48.313Z,2.00
2023-05-09T03:25:17.619Z,1.70
2023-05-09T03:27:44.152Z,1.75
2023-05-09T03:30:11.277Z,1.83
2023-05-09T03:32:37.883Z,1.77
2023-05-09T03:35:04.574Z,2.00
2023-05-09T03:37:31.163Z,1.67
2023-05-09T03:40:11.840Z,1.58
2023-05-09T03:42:39.452Z,2.72
2023-05-09T03:45:06.369Z,1.95
2023-05-09T03:47:32.664Z,1.90
2023-05-09T03:50:02.120Z,2.05
2023-05-09T03:52:32.522Z,1.95
2023-05-09T03:54:59.226Z,1.75
2023-05-09T03:57:31.010Z,2.28
2023-05-09T03:59:57.936Z,2.22
2023-05-09T04:02:29.885Z,2.13
2023-05-09T04:04:57.296Z,2.00
2023-05-09T04:07:23.829Z,2.20
2023-05-09T04:09:50.247Z,1.83
2023-05-09T04:12:16.691Z,1.80
2023-05-09T04:14:45.625Z,2.30
2023-05-09T04:17:13.531Z,2.20
2023-05-09T04:19:40.024Z,1.90
2023-05-09T04:22:07.269Z,1.83
2023-05-09T04:24:33.854Z,2.22
2023-05-09T04:27:00.675Z,2.08
2023-05-09T04:29:32.746Z,1.90
2023-05-09T04:31:59.480Z,2.00
2023-05-09T04:34:27.277Z,2.00
2023-05-09T04:36:53.845Z,2.00
2023-05-09T04:39:20.232Z,2.20
2023-05-09T04:41:47.541Z,1.85
2023-05-09T04:44:15.627Z,2.15
2023-05-09T04:46:45.050Z,2.00
2023-05-09T04:49:11.462Z,2.00
2023-05-09T04:51:40.120Z,2.28
2023-05-09T04:54:06.642Z,2.20
2023-05-09T04:56:32.889Z,2.05
2023-05-09T04:58:59.221Z,2.38
2023-05-09T05:01:26.402Z,1.83
2023-05-09T05:03:52.606Z,2.50
2023-05-09T05:06:18.901Z,1.88
2023-05-09T05:08:45.419Z,2.20
2023-05-09T05:11:14.303Z,2.45
2023-05-09T05:13:41.777Z,2.70
2023-05-09T05:16:08.261Z,2.60
2023-05-09T05:18:34.615Z,2.58
2023-05-09T05:21:02.409Z,2.42
2023-05-09T05:23:28.788Z,2.60
2023-05-09T05:25:54.906Z,2.90
2023-05-09T05:28:21.260Z,2.50
2023-05-09T05:30:47.491Z,2.33
2023-05-09T05:33:13.722Z,2.20
2023-05-09T05:35:42.132Z,2.40
2023-05-09T05:38:08.509Z,2.63
2023-05-09T05:40:34.775Z,2.20
2023-05-09T05:43:02.046Z,2.58
2023-05-09T05:45:30.104Z,1.92
2023-05-09T05:47:56.484Z,2.47
2023-05-09T05:50:22.830Z,2.25
2023-05-09T05:52:51.788Z,2.42
2023-05-09T05:55:18.238Z,2.40
2023-05-09T05:57:46.301Z,1.92
2023-05-09T06:00:14.399Z,2.05
2023-05-09T06:02:44.724Z,2.15
2023-05-09T06:05:11.710Z,2.22
2023-05-09T06:07:39.736Z,2.38
2023-05-09T06:10:07.317Z,2.40
2023-05-09T06:12:34.544Z,2.20
2023-05-09T06:15:00.913Z,2.13
2023-05-09T06:17:28.386Z,2.65
2023-05-09T06:19:58.143Z,2.25
2023-05-09T06:22:24.741Z,2.38
2023-05-09T06:24:50.974Z,2.35
2023-05-09T06:27:17.333Z,2.50
2023-05-09T06:29:48.742Z,2.40
2023-05-09T06:32:22.544Z,2.03
2023-05-09T06:34:48.970Z,2.72
2023-05-09T06:37:18.416Z,2.65
2023-05-09T06:39:44.666Z,3.03
2023-05-09T06:42:11.030Z,2.95
2023-05-09T06:44:37.425Z,2.75
2023-05-09T06:47:05.312Z,2.10
2023-05-09T06:49:31.877Z,2.45
2023-05-09T06:52:00.892Z,2.10
2023-05-09T06:54:28.474Z,2.63
2023-05-09T06:56:55.080Z,2.58
2023-05-09T06:59:21.465Z,2.28
2023-05-09T07:01:48.247Z,2.35
2023-05-09T07:04:17.955Z,1.65
2023-05-09T07:06:44.440Z,2.10
2023-05-09T07:09:11.242Z,2.10
2023-05-09T07:11:37.571Z,2.28
2023-05-09T07:14:04.693Z,2.40
2023-05-09T07:16:31.209Z,1.92
2023-05-09T07:18:57.396Z,2.20
2023-05-09T07:21:23.946Z,3.58
2023-05-09T07:23:52.099Z,2.38
2023-05-09T07:26:18.776Z,2.35
2023-05-09T07:28:45.220Z,2.22
2023-05-09T07:31:11.987Z,2.25
2023-05-09T07:33:38.406Z,1.92
2023-05-09T07:36:05.107Z,2.17
2023-05-09T07:38:31.309Z,2.20
2023-05-09T07:40:57.805Z,2.10
2023-05-09T07:43:27.389Z,2.72
2023-05-09T07:45:58.573Z,2.30
2023-05-09T07:48:36.416Z,2.25
2023-05-09T07:51:06.793Z,2.15
2023-05-09T07:53:33.236Z,2.38
2023-05-09T07:56:00.945Z,2.55
2023-05-09T07:58:28.047Z,2.17
2023-05-09T08:00:56.825Z,2.85
2023-05-09T08:03:29.452Z,2.35
2023-05-09T08:05:58.968Z,2.22
2023-05-09T08:08:25.989Z,2.20
2023-05-09T08:10:52.518Z,2.30
2023-05-09T08:13:20.074Z,2.25
2023-05-09T08:15:49.183Z,2.38
2023-05-09T08:18:15.751Z,2.10
2023-05-09T08:20:43.020Z,1.83
2023-05-09T08:23:12.377Z,2.30
2023-05-09T08:25:38.751Z,2.08
2023-05-09T08:28:08.623Z,2.20
2023-05-09T08:30:35.043Z,1.73
2023-05-09T08:33:01.351Z,2.05
2023-05-09T08:35:27.820Z,2.38
2023-05-09T08:37:54.401Z,2.03
2023-05-09T08:40:25.283Z,1.98
2023-05-09T08:42:52.597Z,2.20
2023-05-09T08:45:26.399Z,1.92
2023-05-09T08:47:53.503Z,1.80
2023-05-09T08:50:23.118Z,1.75
2023-05-09T08:52:50.296Z,1.90
2023-05-09T08:55:19.191Z,2.30
2023-05-09T08:57:45.963Z,1.90
2023-05-09T09:00:13.526Z,1.98
2023-05-09T09:02:42.376Z,1.70
2023-05-09T09:05:23.886Z,2.03
2023-05-09T09:07:59.538Z,1.38
2023-05-09T09:10:27.868Z,2.05
2023-05-09T09:13:00.965Z,1.88
2023-05-09T09:15:35.402Z,1.67
2023-05-09T09:18:10.998Z,2.20
2023-05-09T09:20:41.019Z,1.67
2023-05-09T09:23:10.366Z,1.70
2023-05-09T09:25:37.615Z,1.83
2023-05-09T09:28:07.621Z,1.92
2023-05-09T09:30:33.922Z,2.03
2023-05-09T09:33:04.168Z,1.60
2023-05-09T09:35:40.948Z,1.75
2023-05-09T09:38:11.040Z,1.90
2023-05-09T09:40:40.340Z,1.60
2023-05-09T09:43:10.159Z,1.70
2023-05-09T09:45:36.746Z,1.83
2023-05-09T09:48:06.067Z,1.77
2023-05-09T09:50:32.471Z,1.88
2023-05-09T09:53:02.379Z,1.58
2023-05-09T09:55:32.716Z,1.77
2023-05-09T09:57:59.434Z,2.10
2023-05-09T10:00:28.544Z,2.33
2023-05-09T10:02:57.793Z,1.70
2023-05-09T10:05:30.338Z,1.98
2023-05-09T10:08:06.255Z,2.20
2023-05-09T10:10:39.738Z,1.90
2023-05-09T10:13:12.976Z,1.70
2023-05-09T10:15:52.907Z,1.70
2023-05-09T10:18:24.207Z,1.83
2023-05-09T10:20:54.208Z,1.98
2023-05-09T10:23:21.085Z,1.80
2023-05-09T10:25:52.322Z,1.80
2023-05-09T10:28:25.275Z,1.80
2023-05-09T10:31:25.021Z,2.03
2023-05-09T10:33:51.920Z,2.13
2023-05-09T10:36:23.499Z,2.10
2023-05-09T10:38:57.408Z,2.05
2023-05-09T10:41:26.475Z,1.83
2023-05-09T10:43:58.219Z,2.55
2023-05-09T10:46:27.927Z,2.15
2023-05-09T10:48:54.505Z,2.15
2023-05-09T10:51:24.302Z,1.60
2023-05-09T10:53:51.363Z,1.70
2023-05-09T10:56:32.981Z,2.28
2023-05-09T10:59:00.408Z,2.28
2023-05-09T11:01:35.225Z,1.65
2023-05-09T11:04:09.596Z,2.45
2023-05-09T11:06:45.570Z,2.17
2023-05-09T11:09:33.102Z,1.85
2023-05-09T11:12:05.564Z,1.60
2023-05-09T11:14:44.676Z,1.67
2023-05-09T11:17:13.156Z,2.08
2023-05-09T11:20:01.827Z,2.22
2023-05-09T11:22:31.931Z,1.90
2023-05-09T11:25:04.568Z,1.80
2023-05-09T11:27:42.174Z,1.80
2023-05-09T11:30:10.046Z,1.73
2023-05-09T11:33:01.741Z,2.13
2023-05-09T11:35:31.026Z,1.95
2023-05-09T11:38:01.272Z,1.70
2023-05-09T11:40:28.567Z,1.42
2023-05-09T11:42:58.328Z,2.00
2023-05-09T11:45:31.531Z,2.05
2023-05-09T11:47:58.715Z,1.80
2023-05-09T11:50:25.458Z,2.13
2023-05-09T11:52:52.992Z,1.85
2023-05-09T11:55:22.190Z,1.67
2023-05-09T11:57:53.988Z,2.10
2023-05-09T12:00:25.998Z,1.42
2023-05-09T12:02:53.246Z,1.90
2023-05-09T12:05:21.427Z,1.65
2023-05-09T12:07:49.005Z,1.90
2023-05-09T12:10:19.026Z,1.65
2023-05-09T12:12:47.440Z,1.95
2023-05-09T12:15:14.467Z,1.77
2023-05-09T12:17:41.834Z,1.88
2023-05-09T12:20:09.088Z,1.67
2023-05-09T12:22:37.191Z,2.30
2023-05-09T12:25:08.024Z,1.90
2023-05-09T12:27:38.990Z,2.08
2023-05-09T12:30:10.225Z,2.22
2023-05-09T12:32:39.085Z,2.10
2023-05-09T12:35:11.072Z,1.83
2023-05-09T12:37:40.067Z,1.85
2023-05-09T12:40:11.990Z,1.70
2023-05-09T12:42:40.446Z,2.05
2023-05-09T12:45:10.726Z,1.48
2023-05-09T12:47:39.463Z,2.13
2023-05-09T12:50:06.888Z,2.40
2023-05-09T12:52:41.683Z,1.67
2023-05-09T12:55:20.045Z,2.40
2023-05-09T12:57:57.984Z,1.90
2023-05-09T13:00:30.938Z,1.88
2023-05-09T13:02:57.362Z,1.77
2023-05-09T13:05:24.064Z,2.30
2023-05-09T13:07:56.557Z,1.83
2023-05-09T13:10:28.958Z,1.75
2023-05-09T13:12:55.764Z,2.03
2023-05-09T13:15:23.398Z,1.88
2023-05-09T13:17:51.763Z,1.90
2023-05-09T13:20:19.339Z,1.77
2023-05-09T13:22:46.324Z,2.03
2023-05-09T13:25:15.815Z,2.53
2023-05-09T13:27:42.399Z,2.40
2023-05-09T13:30:20.172Z,2.00
2023-05-09T13:32:48.419Z,1.70
2023-05-09T13:35:16.564Z,1.60
2023-05-09T13:37:49.508Z,1.90
2023-05-09T13:40:16.342Z,2.20
2023-05-09T13:42:49.212Z,1.95
2023-05-09T13:45:15.918Z,2.47
2023-05-09T13:47:42.542Z,1.60
2023-05-09T13:50:10.093Z,2.35
2023-05-09T13:52:37.929Z,2.13
2023-05-09T13:55:08.604Z,2.55
2023-05-09T13:57:39.524Z,1.95
2023-05-09T14:00:09.492Z,1.88
2023-05-09T14:02:42.756Z,1.85
2023-05-09T14:05:09.446Z,2.40
2023-05-09T14:07:37.194Z,2.00
2023-05-09T14:12:34.104Z,1.63
2023-05-09T14:15:01.376Z,1.70
2023-05-09T14:17:30.362Z,1.73
2023-05-09T14:19:57.464Z,1.90
2023-05-09T14:22:24.005Z,1.98
2023-05-09T14:24:52.647Z,1.60
2023-05-09T14:27:19.169Z,1.85
2023-05-09T14:29:46.182Z,2.33
2023-05-09T14:32:12.830Z,1.98
2023-05-09T14:34:41.288Z,1.88
2023-05-09T14:37:15.816Z,2.00
2023-05-09T14:39:43.762Z,1.58
2023-05-09T14:42:11.620Z,1.65
2023-05-09T14:44:38.818Z,1.70
2023-05-09T14:47:06.066Z,2.53
2023-05-09T14:49:32.981Z,1.80
2023-05-09T14:52:03.090Z,1.90
2023-05-09T14:54:30.065Z,1.83
2023-05-09T14:56:57.215Z,1.63
2023-05-09T14:59:23.688Z,2.50
2023-05-09T15:01:51.657Z,2.13
2023-05-09T15:04:18.268Z,1.85
2023-05-09T15:06:45.977Z,1.77
2023-05-09T15:09:12.669Z,1.80
2023-05-09T15:11:47.885Z,2.08
2023-05-09T15:14:16.992Z,1.85
2023-05-09T15:16:43.707Z,1.90
2023-05-09T15:19:10.242Z,2.47
2023-05-09T15:21:39.213Z,1.75
2023-05-09T15:24:06.389Z,2.08
2023-05-09T15:26:33.099Z,1.77
2023-05-09T15:29:00.245Z,2.17
2023-05-09T15:31:26.805Z,1.42
2023-05-09T15:33:55.648Z,1.83
2023-05-09T15:36:22.722Z,1.77
2023-05-09T15:38:49.707Z,1.83
2023-05-09T15:41:16.756Z,1.55
2023-05-09T15:43:44.151Z,1.55
2023-05-09T15:46:13.322Z,2.20
2023-05-09T15:48:39.902Z,1.75
2023-05-09T15:51:06.387Z,1.38
2023-05-09T15:53:32.741Z,1.70
2023-05-09T15:55:59.394Z,2.10
2023-05-09T15:58:26.032Z,1.67
2023-05-09T16:00:52.453Z,1.80
2023-05-09T16:03:19.286Z,1.50
2023-05-09T16:05:48.636Z,1.52
2023-05-09T16:08:14.874Z,1.80
2023-05-09T16:10:41.349Z,1.70
2023-05-09T16:13:08.177Z,1.48
2023-05-09T16:15:39.124Z,1.83
2023-05-09T16:18:06.790Z,1.60
2023-05-09T16:20:36.006Z,2.00
2023-05-09T16:23:06.065Z,1.65
2023-05-09T16:25:35.186Z,1.60
2023-05-09T16:28:01.948Z,2.05
2023-05-09T16:30:28.689Z,1.60
2023-05-09T16:32:55.196Z,2.08
2023-05-09T16:35:21.737Z,1.58
2023-05-09T16:37:48.135Z,1.80
2023-05-09T16:40:14.884Z,1.90
2023-05-09T16:42:42.879Z,1.77
2023-05-09T16:45:15.769Z,1.83
2023-05-09T16:47:42.109Z,1.80
2023-05-09T16:50:10.148Z,1.88
2023-05-09T16:52:36.876Z,1.73
2023-05-09T16:55:07.327Z,1.75
2023-05-09T16:57:33.939Z,1.63
2023-05-09T17:00:00.418Z,2.28
2023-05-09T17:02:32.961Z,2.38
2023-05-09T17:04:59.707Z,2.70
2023-05-09T17:07:25.900Z,1.40
2023-05-09T17:09:55.674Z,1.40
2023-05-09T17:12:22.152Z,1.83
2023-05-09T17:14:48.659Z,2.17
2023-05-09T17:17:17.441Z,1.83
2023-05-09T17:19:45.852Z,1.90
2023-05-09T17:22:12.535Z,2.13
2023-05-09T17:24:38.832Z,2.33
2023-05-09T17:27:05.862Z,2.22
2023-05-09T17:29:32.724Z,2.35
2023-05-09T17:32:05.118Z,2.40
2023-05-09T17:34:32.061Z,2.25
2023-05-09T17:36:58.372Z,1.95
2023-05-09T17:39:24.842Z,1.98
2023-05-09T17:41:51.272Z,1.58
2023-05-09T17:44:23.296Z,1.85
2023-05-09T17:46:54.278Z,1.90
2023-05-09T17:49:21.162Z,2.10
2023-05-09T17:51:48.191Z,2.05
2023-05-09T17:54:15.513Z,2.75
2023-05-09T17:56:41.970Z,1.73
2023-05-09T17:59:08.398Z,2.28
2023-05-09T18:01:35.072Z,2.20
2023-05-09T18:04:01.693Z,2.20
2023-05-09T18:06:28.784Z,1.70
2023-05-09T18:08:55.904Z,2.30
2023-05-09T18:11:27.173Z,2.17
2023-05-09T18:13:53.360Z,2.20
2023-05-09T18:16:21.116Z,2.42
2023-05-09T18:18:50.098Z,2.38
2023-05-09T18:21:16.376Z,2.15
2023-05-09T18:26:25.804Z,1.95
2023-05-09T18:28:58.208Z,2.10
2023-05-09T18:34:14.111Z,2.28
2023-05-09T18:36:41.261Z,2.15
2023-05-09T18:39:11.968Z,2.42
2023-05-09T18:41:44.553Z,2.42
2023-05-09T18:44:13.874Z,2.25
2023-05-09T18:46:46.543Z,1.83
2023-05-09T18:49:15.277Z,2.40
2023-05-09T18:51:41.493Z,2.20
2023-05-09T18:54:09.721Z,1.73
2023-05-09T18:56:42.502Z,1.77
2023-05-09T18:59:12.519Z,2.30
2023-05-09T19:01:39.254Z,3.03
2023-05-09T19:04:06.763Z,2.60
2023-05-09T19:06:36.869Z,2.40
2023-05-09T19:09:04.263Z,2.17
2023-05-09T19:11:30.976Z,2.67
2023-05-09T19:13:57.753Z,2.33
2023-05-09T19:16:26.064Z,1.83
2023-05-09T19:18:56.770Z,1.90
2023-05-09T19:21:23.912Z,1.73
2023-05-09T19:23:50.636Z,1.50
2023-05-09T19:26:18.756Z,1.90
2023-05-09T19:28:47.934Z,1.90
2023-05-09T19:31:15.406Z,1.70
2023-05-09T19:33:45.245Z,1.60
2023-05-09T19:36:15.521Z,1.80
2023-05-09T19:38:42.497Z,1.83
2023-05-09T19:41:09.387Z,2.50
2023-05-09T19:43:35.702Z,2.40
2023-05-09T19:46:02.178Z,1.88
2023-05-09T19:48:28.536Z,2.00
2023-05-09T19:50:59.372Z,2.30
2023-05-09T19:53:30.083Z,2.00
2023-05-09T19:55:56.314Z,2.53
2023-05-09T19:58:24.783Z,2.10
2023-05-09T20:00:51.174Z,1.45
2023-05-09T20:03:17.745Z,1.45
2023-05-09T20:05:44.296Z,1.88
2023-05-09T20:08:10.546Z,2.10
2023-05-09T20:10:37.125Z,1.92
2023-05-09T20:13:07.617Z,1.70
2023-05-09T20:15:34.147Z,1.90
2023-05-09T20:18:03.108Z,1.85
2023-05-09T20:20:33.444Z,2.40
2023-05-09T20:22:59.780Z,2.03
2023-05-09T20:25:28.996Z,2.38
2023-05-09T20:27:58.066Z,2.40
2023-05-09T20:30:24.894Z,3.25
2023-05-09T20:32:52.593Z,2.28
2023-05-09T20:35:19.578Z,1.95
2023-05-09T20:37:48.579Z,2.50
2023-05-09T20:40:15.166Z,2.30
2023-05-09T20:42:42.325Z,2.55
2023-05-09T20:45:09.192Z,2.15
2023-05-09T20:47:35.589Z,2.35
2023-05-09T20:50:02.330Z,2.35
2023-05-09T20:52:28.805Z,2.00
2023-05-09T20:54:55.288Z,2.03
2023-05-09T20:57:21.717Z,2.38
2023-05-09T20:59:48.102Z,2.05
2023-05-09T21:02:14.963Z,2.35
2023-05-09T21:04:41.757Z,2.72
2023-05-09T21:07:09.698Z,2.35
2023-05-09T21:09:35.984Z,2.30
2023-05-09T21:12:04.017Z,2.60
2023-05-09T21:14:30.847Z,1.77
2023-05-09T21:16:59.866Z,2.05
2023-05-09T21:19:27.150Z,1.90
2023-05-09T21:21:54.499Z,2.42
2023-05-09T21:24:21.045Z,2.05
2023-05-09T21:26:47.616Z,2.00
2023-05-09T21:29:14.053Z,2.25
2023-05-09T21:31:41.094Z,2.30
2023-05-09T21:34:10.153Z,2.33
2023-05-09T21:36:37.972Z,2.03
2023-05-09T21:39:09.236Z,2.22
2023-05-09T21:41:36.338Z,2.60
2023-05-09T21:44:03.420Z,2.28
2023-05-09T21:46:33.125Z,2.28
2023-05-09T21:49:00.713Z,2.60
2023-05-09T21:51:28.782Z,2.65
2023-05-09T21:53:55.862Z,2.63
2023-05-09T21:56:25.009Z,2.75
2023-05-09T21:58:51.307Z,2.30
2023-05-09T22:01:18.384Z,2.20
2023-05-09T22:03:48.125Z,2.65
2023-05-09T22:06:14.402Z,2.72
2023-05-09T22:08:40.872Z,2.70
2023-05-09T22:11:08.167Z,2.50
2023-05-09T22:13:36.013Z,2.70
2023-05-09T22:16:04.121Z,2.00
2023-05-09T22:18:31.870Z,3.10
2023-05-09T22:20:58.899Z,2.60
2023-05-09T22:23:28.468Z,2.75
2023-05-09T22:25:56.463Z,2.75
2023-05-09T22:28:22.856Z,2.85
2023-05-09T22:30:49.323Z,3.80
2023-05-09T22:33:17.294Z,2.90
2023-05-09T22:35:43.687Z,2.53
2023-05-09T22:38:10.086Z,2.72
2023-05-09T22:40:36.556Z,3.10
2023-05-09T22:43:03.629Z,2.63
2023-05-09T22:45:32.862Z,3.38
2023-05-09T22:47:59.446Z,2.60
2023-05-09T22:50:25.944Z,2.75
2023-05-09T22:52:52.433Z,2.90
2023-05-09T22:55:21.491Z,3.15
2023-05-09T22:57:48.615Z,2.85
2023-05-09T23:00:15.945Z,2.50
2023-05-09T23:02:43.328Z,3.08
2023-05-09T23:05:09.614Z,2.63
2023-05-09T23:07:39.827Z,2.85
2023-05-09T23:10:08.877Z,2.63
2023-05-09T23:12:35.138Z,3.08
2023-05-09T23:15:01.846Z,2.50
2023-05-09T23:17:37.024Z,2.63
2023-05-09T23:20:04.611Z,2.83
2023-05-09T23:22:31.493Z,3.13
2023-05-09T23:25:03.438Z,3.38
2023-05-09T23:27:31.109Z,3.35
2023-05-09T23:29:57.627Z,3.13
2023-05-09T23:32:25.704Z,3.35
2023-05-09T23:34:55.142Z,3.60
2023-05-09T23:37:21.855Z,3.17
2023-05-09T23:39:49.096Z,2.80
2023-05-09T23:42:21.061Z,3.08
2023-05-09T23:44:47.472Z,2.75
2023-05-09T23:47:18.638Z,3.15
2023-05-09T23:49:48.169Z,3.25
2023-05-09T23:52:14.862Z,3.47
2023-05-09T23:54:51.411Z,3.35
2023-05-09T23:57:21.027Z,3.15
2023-05-09T23:59:47.528Z,3.13
